KSVC

Grant County Airport

Silver City, New Mexico, USA
METAR KSVC 182235Z AUTO 20010G16KT 10SM BKN110 30/05 A3008 RMK AO2 T03030048
Observed Flight Rules
Jun-18 @ 22:35 UTC (12 minutes ago) Visual Flight Rules
Wind Visibility Clouds
200° at 10 knots
 Gusting to 16 knots
10 miles
  • Broken at 11,000' AGL
Temperatures Readings
Current 30°C / 86°F
Dewpoint 5°C / 41°F
Humidity 20%
Altimeter 30.08" Hg
Pressure 1019 hPa
Elevation 1659
METAR KSVC 182235Z AUTO 20010G16KT 10SM BKN110 30/05 A3008 RMK AO2 T03030048
Observed Flight Rules
Jun-18 @ 22:35 UTC
(12 minutes ago)
VFR
Wind Visibility
200° at 10 knots
 Gusting to 16 knots
10 miles
Clouds
  • Broken at 11,000' AGL
Temperature Dewpoint
30°C / 86°F 5°C / 41°F
Humidity Altimeter Pressure
20% 30.08" Hg 1019 hPa